Benton, KY

7:25 PM CST on November 22, 2014 (GMT -0600)
Metropolis | Change Station
CLOSE
Current Station
Airport
Location: Metropolis,
Elevation: 384 ft
Nearby Weather Stations

Elev 384 ft 37.18 °N, 88.75 °W | Updated 10 minutes ago

Overcast
Overcast
61 °F
Feels Like 61 °F
N
7
Wind Variable Wind from South

Today
High -- | Low -- °F
--% Chance of Precip.
Yesterday
High -- | Low -- °F
Precip. -- in
6:38 AM 4:39 PM
New Moon, 0% visible
Pressure 30.04 in
Visibility 10.0 miles
Clouds Mostly Cloudy 5000 ft
Overcast 6000 ft
Dew Point 38 °F
Humidity 43%
Rainfall 0.00 in
Snow Depth Not available.
UV 0 out of 12
Pollen 2.20 out of 12
Air Quality Not available.
Flu Activity Not available.
METAR KM30 230115Z AUTO 18006KT 10SM BKN050 OVC060 16/04 A3004 RMK AO2 T01630035

More Conditions Fewer Conditions

Pressure 30.04 in
Visibility 10.0 miles
Clouds Mostly Cloudy 5000 ft
Overcast 6000 ft
Dew Point 38 °F
Humidity 43%
Rainfall 0.00 in
Snow Depth Not available.
UV 0 out of 12
Pollen 2.20 out of 12
Air Quality Not available.
Flu Activity Not available.
METAR KM30 230115Z AUTO 18006KT 10SM BKN050 OVC060 16/04 A3004 RMK AO2 T01630035

More Conditions Fewer Conditions

10-Day Weather Forecast

Almanac

Astronomy

Nov. 22, 2014 Rise Set
Actual Time
Civil Twilight
Nautical Twilight
Astronomical Twilight
Moon
Length of Visible Light
Length of Day
Tomorrow will be .
, % of the Moon is Illuminated

Today's Extremes

State Highs State Lows

Community

WunderPhotos

Upload Photos

1,772,956 photos uploaded!

WunderBlogs® & News

Nearby

Air Quality

  Air Quality AQ Index Pollutant
Not available.

Snow Depth

Station Depth Elevation

Earthquake Activity

City Distance Mag. Time & Date
Minimum magnitude displayed is 2.5.

Coastal Water Temperatures

Place Temperature

Nearby Weather Stations